Terminal Aerodrome Forecast
Issued by NWS Brownsville, TX

Home | Current Version | Previous Version | Text Only | Print | Product List | Glossary On
Versions: 1 2 3 4 5 6 7 8 9 10 11 12 13 14 15
000
FTUS44 KBRO 281140
TAFBRO
TAF
KBRO 281140Z 2812/0112 16015KT P6SM BKN010
      TEMPO 2812/2814 BKN009
     FM281500 16015G20KT P6SM BKN025
     FM281800 16017G26KT P6SM SKC
     FM010300 15012KT P6SM BKN015
     FM010600 16012KT P6SM BKN007=

USA.gov is the U.S. government's official web portal to all federal, state and local government web resources and services.